createdAt,value
2023-04-06T00:00:50.045Z,13.93
2023-04-06T00:03:17.022Z,13.00
2023-04-06T00:05:43.962Z,13.87
2023-04-06T00:08:11.057Z,12.77
2023-04-06T00:10:37.884Z,11.97
2023-04-06T00:13:04.772Z,13.53
2023-04-06T00:15:32.120Z,12.53
2023-04-06T00:17:59.048Z,13.43
2023-04-06T00:20:26.379Z,14.53
2023-04-06T00:22:53.180Z,13.23
2023-04-06T00:25:20.007Z,12.80
2023-04-06T00:27:46.856Z,15.17
2023-04-06T00:30:13.759Z,13.17
2023-04-06T00:32:44.329Z,12.73
2023-04-06T00:35:11.604Z,14.13
2023-04-06T00:37:38.401Z,14.70
2023-04-06T00:40:05.670Z,14.07
2023-04-06T00:42:32.503Z,11.67
2023-04-06T00:45:00.771Z,15.00
2023-04-06T00:47:28.215Z,14.37
2023-04-06T00:49:55.555Z,16.20
2023-04-06T00:52:22.441Z,17.57
2023-04-06T00:54:50.585Z,12.87
2023-04-06T00:57:19.965Z,15.53
2023-04-06T00:59:53.066Z,14.80
2023-04-06T01:02:20.148Z,15.80
2023-04-06T01:04:49.889Z,12.83
2023-04-06T01:07:25.945Z,14.73
2023-04-06T01:10:25.797Z,11.30
2023-04-06T01:12:56.815Z,14.23
2023-04-06T01:15:42.507Z,15.30
2023-04-06T01:18:12.804Z,17.47
2023-04-06T01:20:46.856Z,13.67
2023-04-06T01:23:15.802Z,15.83
2023-04-06T01:25:46.715Z,14.07
2023-04-06T01:28:13.576Z,13.93
2023-04-06T01:30:54.865Z,13.70
2023-04-06T01:33:40.178Z,13.03
2023-04-06T01:36:10.623Z,13.00
2023-04-06T01:38:37.493Z,13.70
2023-04-06T01:41:04.597Z,14.00
2023-04-06T01:43:41.568Z,15.53
2023-04-06T01:46:10.686Z,17.47
2023-04-06T01:48:41.224Z,15.00
2023-04-06T01:51:32.061Z,13.77
2023-04-06T01:54:01.626Z,14.97
2023-04-06T01:56:43.634Z,15.83
2023-04-06T01:59:24.791Z,16.40
2023-04-06T02:01:51.858Z,16.77
2023-04-06T02:04:19.052Z,16.20
2023-04-06T02:06:48.991Z,16.87
2023-04-06T02:09:20.515Z,13.13
2023-04-06T02:11:47.286Z,14.97
2023-04-06T02:14:14.266Z,13.90
2023-04-06T02:16:47.124Z,14.03
2023-04-06T02:19:14.120Z,13.70
2023-04-06T02:21:40.994Z,18.17
2023-04-06T02:24:07.920Z,15.60
2023-04-06T02:26:35.150Z,17.30
2023-04-06T02:29:03.370Z,14.70
2023-04-06T02:31:30.324Z,14.00
2023-04-06T02:33:57.229Z,15.10
2023-04-06T02:36:24.104Z,15.77
2023-04-06T02:38:52.929Z,14.13
2023-04-06T02:41:20.006Z,14.90
2023-04-06T02:43:46.869Z,16.83
2023-04-06T02:46:26.020Z,13.57
2023-04-06T02:48:52.913Z,15.03
2023-04-06T02:51:20.186Z,15.90
2023-04-06T02:53:52.595Z,14.37
2023-04-06T02:56:20.215Z,13.40
2023-04-06T02:58:51.113Z,17.13
2023-04-06T03:01:23.916Z,14.23
2023-04-06T03:03:56.766Z,16.17
2023-04-06T03:06:26.381Z,14.40
2023-04-06T03:08:57.470Z,14.70
2023-04-06T03:11:25.036Z,13.67
2023-04-06T03:13:53.180Z,13.80
2023-04-06T03:16:21.380Z,15.43
2023-04-06T03:18:48.677Z,15.03
2023-04-06T03:21:16.577Z,15.57
2023-04-06T03:23:52.292Z,13.27
2023-04-06T03:26:19.780Z,14.83
2023-04-06T03:28:46.580Z,13.03
2023-04-06T03:31:14.903Z,13.53
2023-04-06T03:34:02.791Z,13.07
2023-04-06T03:36:35.611Z,13.13
2023-04-06T03:39:04.062Z,13.77
2023-04-06T03:41:34.117Z,12.17
2023-04-06T03:44:07.286Z,13.17
2023-04-06T03:46:34.132Z,16.57
2023-04-06T03:49:01.608Z,13.67
2023-04-06T03:51:29.118Z,13.37
2023-04-06T03:53:55.952Z,13.33
2023-04-06T03:56:22.825Z,13.40
2023-04-06T03:58:52.583Z,14.67
2023-04-06T04:01:21.512Z,13.17
2023-04-06T04:03:50.969Z,12.00
2023-04-06T04:06:18.435Z,13.67
2023-04-06T04:08:46.186Z,11.23
2023-04-06T04:11:12.910Z,14.77
2023-04-06T04:13:39.915Z,11.63
2023-04-06T04:16:09.152Z,13.93
2023-04-06T04:18:36.296Z,13.73
2023-04-06T04:21:03.056Z,12.20
2023-04-06T04:23:30.137Z,12.37
2023-04-06T04:25:57.313Z,17.20
2023-04-06T04:28:24.216Z,12.73
2023-04-06T04:30:54.722Z,14.43
2023-04-06T04:33:22.410Z,13.90
2023-04-06T04:35:52.279Z,13.20
2023-04-06T04:38:21.765Z,14.20
2023-04-06T04:40:52.647Z,17.87
2023-04-06T04:43:20.424Z,16.90
2023-04-06T04:45:47.909Z,12.77
2023-04-06T04:48:37.470Z,15.83
2023-04-06T04:51:07.054Z,15.67
2023-04-06T04:54:02.980Z,14.37
2023-04-06T04:56:32.246Z,15.33
2023-04-06T04:59:15.883Z,16.37
2023-04-06T05:01:55.282Z,13.77
2023-04-06T05:04:28.260Z,14.20
2023-04-06T05:07:05.021Z,12.90
2023-04-06T05:09:33.109Z,15.10
2023-04-06T05:12:01.342Z,13.90
2023-04-06T05:14:30.909Z,13.73
2023-04-06T05:16:59.438Z,13.63
2023-04-06T05:19:27.348Z,14.90
2023-04-06T05:21:54.365Z,12.93
2023-04-06T05:24:21.237Z,13.40
2023-04-06T05:26:49.392Z,15.60
2023-04-06T05:29:22.476Z,13.00
2023-04-06T05:31:49.763Z,13.57
2023-04-06T05:34:16.974Z,12.20
2023-04-06T05:36:43.824Z,14.17
2023-04-06T05:39:21.872Z,13.20
2023-04-06T05:41:51.489Z,16.80
2023-04-06T05:44:28.171Z,13.27
2023-04-06T05:47:03.623Z,17.13
2023-04-06T05:49:30.791Z,12.30
2023-04-06T05:51:57.606Z,13.33
2023-04-06T05:54:24.554Z,14.00
2023-04-06T05:56:55.248Z,14.87
2023-04-06T05:59:22.267Z,12.67
2023-04-06T06:01:49.685Z,12.50
2023-04-06T06:04:17.573Z,14.40
2023-04-06T06:06:45.896Z,12.50
2023-04-06T06:09:18.730Z,13.43
2023-04-06T06:11:55.829Z,12.00
2023-04-06T06:14:26.088Z,14.07
2023-04-06T06:16:52.889Z,14.60
2023-04-06T06:19:20.083Z,13.63
2023-04-06T06:21:47.646Z,13.10
2023-04-06T06:24:15.493Z,13.77
2023-04-06T06:26:42.572Z,13.67
2023-04-06T06:29:11.803Z,13.77
2023-04-06T06:31:40.316Z,13.57
2023-04-06T06:34:07.392Z,13.47
2023-04-06T06:36:37.484Z,15.10
2023-04-06T06:39:08.265Z,18.43
2023-04-06T06:41:35.486Z,21.57
2023-04-06T06:44:02.546Z,15.13
2023-04-06T06:46:29.467Z,13.20
2023-04-06T06:48:56.447Z,13.63
2023-04-06T06:51:23.288Z,14.53
2023-04-06T06:53:50.144Z,12.00
2023-04-06T06:56:17.031Z,12.23
2023-04-06T06:58:43.903Z,12.63
2023-04-06T07:01:10.930Z,23.60
2023-04-06T07:03:38.617Z,11.87
2023-04-06T07:06:05.806Z,11.67
2023-04-06T07:08:32.625Z,11.93
2023-04-06T07:10:59.387Z,14.67
2023-04-06T07:13:28.478Z,13.13
2023-04-06T07:15:57.755Z,13.40
2023-04-06T07:18:24.737Z,15.40
2023-04-06T07:20:51.630Z,14.67
2023-04-06T07:23:18.962Z,13.67
2023-04-06T07:25:46.259Z,15.30
2023-04-06T07:28:12.947Z,15.97
2023-04-06T07:30:40.373Z,12.83
2023-04-06T07:33:09.621Z,17.33
2023-04-06T07:35:37.990Z,15.70
2023-04-06T07:38:06.420Z,16.97
2023-04-06T07:40:34.567Z,15.27
2023-04-06T07:43:03.178Z,15.53
2023-04-06T07:45:30.499Z,14.77
2023-04-06T07:47:59.256Z,14.90
2023-04-06T07:50:27.698Z,14.17
2023-04-06T07:52:55.786Z,17.13
2023-04-06T07:55:23.038Z,17.23
2023-04-06T07:57:49.846Z,15.93
2023-04-06T08:00:16.932Z,15.77
2023-04-06T08:02:43.870Z,12.77
2023-04-06T08:05:11.097Z,12.97
2023-04-06T08:07:38.541Z,13.57
2023-04-06T08:10:05.558Z,13.40
2023-04-06T08:12:33.364Z,15.40
2023-04-06T08:15:00.861Z,17.47
2023-04-06T08:17:31.445Z,14.60
2023-04-06T08:19:58.399Z,16.97
2023-04-06T08:22:25.764Z,16.53
2023-04-06T08:24:52.946Z,16.47
2023-04-06T08:27:19.696Z,17.13
2023-04-06T08:29:46.656Z,13.40
2023-04-06T08:32:13.506Z,16.73
2023-04-06T08:34:40.423Z,13.80
2023-04-06T08:37:07.516Z,14.57
2023-04-06T08:39:35.042Z,17.30
2023-04-06T08:42:04.246Z,17.30
2023-04-06T08:44:33.186Z,13.27
2023-04-06T08:47:00.953Z,13.73
2023-04-06T08:49:28.603Z,14.70
2023-04-06T08:51:56.155Z,12.53
2023-04-06T08:54:23.021Z,12.60
2023-04-06T08:56:50.082Z,14.37
2023-04-06T08:59:17.003Z,13.47
2023-04-06T09:01:44.144Z,12.37
2023-04-06T09:04:12.705Z,14.37
2023-04-06T09:06:41.840Z,14.80
2023-04-06T09:09:09.017Z,13.93
2023-04-06T09:11:43.703Z,16.10
2023-04-06T09:14:10.809Z,14.30
2023-04-06T09:16:42.408Z,13.37
2023-04-06T09:19:09.471Z,15.33
2023-04-06T09:21:37.058Z,19.37
2023-04-06T09:24:04.719Z,12.60
2023-04-06T09:26:31.724Z,15.33
2023-04-06T09:29:00.657Z,15.03
2023-04-06T09:31:28.582Z,15.03
2023-04-06T09:33:55.654Z,12.60
2023-04-06T09:36:43.427Z,12.43
2023-04-06T09:39:10.281Z,14.40
2023-04-06T09:41:37.721Z,12.53
2023-04-06T09:44:07.644Z,14.60
2023-04-06T09:46:50.555Z,13.90
2023-04-06T09:49:23.171Z,15.33
2023-04-06T09:51:54.541Z,16.30
2023-04-06T09:54:22.846Z,15.17
2023-04-06T09:56:58.477Z,14.67
2023-04-06T09:59:32.620Z,16.20
2023-04-06T10:02:00.134Z,15.03
2023-04-06T10:04:36.445Z,15.73
2023-04-06T10:07:03.453Z,13.43
2023-04-06T10:09:37.125Z,14.47
2023-04-06T10:12:04.983Z,22.20
2023-04-06T10:14:34.152Z,19.70
2023-04-06T10:17:02.009Z,12.33
2023-04-06T10:19:30.643Z,22.27
2023-04-06T10:21:59.831Z,11.17
2023-04-06T10:24:26.579Z,15.17
2023-04-06T10:26:58.266Z,11.13
2023-04-06T10:29:25.396Z,17.47
2023-04-06T10:31:52.201Z,12.80
2023-04-06T10:34:18.976Z,13.50
2023-04-06T10:36:46.024Z,15.93
2023-04-06T10:39:12.827Z,12.27
2023-04-06T10:41:43.550Z,11.27
2023-04-06T10:44:18.372Z,12.30
2023-04-06T10:46:53.382Z,12.53
2023-04-06T10:49:20.125Z,11.57
2023-04-06T10:51:52.103Z,10.60
2023-04-06T10:54:19.420Z,9.57
2023-04-06T10:56:46.169Z,14.50
2023-04-06T10:59:12.914Z,10.10
2023-04-06T11:01:39.731Z,11.23
2023-04-06T11:04:06.603Z,11.73
2023-04-06T11:06:33.670Z,11.17
2023-04-06T11:09:01.228Z,10.10
2023-04-06T11:11:28.312Z,8.70
2023-04-06T11:13:56.163Z,7.33
2023-04-06T11:16:24.202Z,8.20
2023-04-06T11:18:55.474Z,7.43
2023-04-06T11:21:33.407Z,7.97
2023-04-06T11:24:09.492Z,10.73
2023-04-06T11:26:44.979Z,11.67
2023-04-06T11:29:12.717Z,10.70
2023-04-06T11:32:03.005Z,9.13
2023-04-06T11:34:31.297Z,9.30
2023-04-06T11:37:02.935Z,9.10
2023-04-06T11:39:30.180Z,11.50
2023-04-06T11:44:52.355Z,11.57
2023-04-06T11:47:19.501Z,10.70
2023-04-06T11:49:46.548Z,11.60
2023-04-06T11:52:20.686Z,10.20
2023-04-06T11:54:48.883Z,9.27
2023-04-06T11:57:16.493Z,10.13
2023-04-06T11:59:43.399Z,8.87
2023-04-06T12:02:10.661Z,7.60
2023-04-06T12:04:37.582Z,9.17
2023-04-06T12:07:05.092Z,7.80
2023-04-06T12:09:32.111Z,8.53
2023-04-06T12:11:59.083Z,8.13
2023-04-06T12:14:25.942Z,9.90
2023-04-06T12:16:52.709Z,8.60
2023-04-06T12:19:19.475Z,10.67
2023-04-06T12:21:46.243Z,10.97
2023-04-06T12:24:13.101Z,10.43
2023-04-06T12:26:39.911Z,11.63
2023-04-06T12:29:09.462Z,11.07
2023-04-06T12:31:37.077Z,9.13
2023-04-06T12:34:04.548Z,10.53
2023-04-06T12:36:32.559Z,10.03
2023-04-06T12:38:59.821Z,11.17
2023-04-06T12:41:26.737Z,12.47
2023-04-06T12:43:53.645Z,10.03
2023-04-06T12:46:21.991Z,12.00
2023-04-06T12:48:49.219Z,11.13
2023-04-06T12:51:16.324Z,12.17
2023-04-06T12:53:43.553Z,13.80
2023-04-06T12:56:18.525Z,12.07
2023-04-06T12:58:45.962Z,11.87
2023-04-06T13:01:15.676Z,13.67
2023-04-06T13:03:42.610Z,10.83
2023-04-06T13:06:09.715Z,23.47
2023-04-06T13:08:38.685Z,14.40
2023-04-06T13:11:06.138Z,12.40
2023-04-06T13:13:32.967Z,16.53
2023-04-06T13:16:04.736Z,14.37
2023-04-06T13:18:32.600Z,15.77
2023-04-06T13:21:00.725Z,11.90
2023-04-06T13:23:27.740Z,13.03
2023-04-06T13:26:06.054Z,12.97
2023-04-06T13:28:33.542Z,13.83
2023-04-06T13:31:01.576Z,11.03
2023-04-06T13:33:28.516Z,9.37
2023-04-06T13:35:56.280Z,9.67
2023-04-06T13:38:25.274Z,10.27
2023-04-06T13:40:52.192Z,10.13
2023-04-06T13:43:22.035Z,16.27
2023-04-06T13:45:52.739Z,15.67
2023-04-06T13:48:20.010Z,23.73
2023-04-06T13:50:49.747Z,22.67
2023-04-06T13:53:16.774Z,17.83
2023-04-06T13:55:44.216Z,12.63
2023-04-06T13:58:11.039Z,11.70
2023-04-06T14:00:38.157Z,10.07
2023-04-06T14:03:05.216Z,10.90
2023-04-06T14:05:33.384Z,9.43
2023-04-06T14:08:00.138Z,10.07
2023-04-06T14:10:29.072Z,13.93
2023-04-06T14:12:56.971Z,15.63
2023-04-06T14:15:25.172Z,10.30
2023-04-06T14:17:52.740Z,11.47
2023-04-06T14:20:19.790Z,9.77
2023-04-06T14:22:47.814Z,14.47
2023-04-06T14:25:14.763Z,9.30
2023-04-06T14:27:41.662Z,7.93
2023-04-06T14:30:09.359Z,12.23
2023-04-06T14:32:37.837Z,9.23
2023-04-06T14:35:07.096Z,8.83
2023-04-06T14:37:34.444Z,13.00
2023-04-06T14:40:01.271Z,11.33
2023-04-06T14:42:28.065Z,9.73
2023-04-06T14:44:54.979Z,10.53
2023-04-06T14:47:22.714Z,13.33
2023-04-06T14:49:54.246Z,12.73
2023-04-06T14:55:42.460Z,8.37
2023-04-06T14:58:09.339Z,10.87
2023-04-06T15:00:36.067Z,10.33
2023-04-06T15:03:03.388Z,10.37
2023-04-06T15:05:31.788Z,8.97
2023-04-06T15:07:58.680Z,15.10
2023-04-06T15:10:25.617Z,10.03
2023-04-06T15:12:52.465Z,9.23
2023-04-06T15:15:19.248Z,11.53
2023-04-06T15:17:46.090Z,8.73
2023-04-06T15:20:13.304Z,7.23
2023-04-06T15:22:40.569Z,8.67
2023-04-06T15:25:07.509Z,7.90
2023-04-06T15:27:34.823Z,9.43
2023-04-06T15:30:01.873Z,7.03
2023-04-06T15:32:28.616Z,6.77
2023-04-06T15:34:57.048Z,7.20
2023-04-06T15:37:23.750Z,6.63
2023-04-06T15:39:50.470Z,8.63
2023-04-06T15:42:17.278Z,4.10
2023-04-06T15:44:44.217Z,5.13
2023-04-06T15:47:11.297Z,5.37
2023-04-06T15:49:38.077Z,4.73
2023-04-06T15:52:04.780Z,3.97
2023-04-06T15:54:31.430Z,3.80
2023-04-06T15:56:58.221Z,3.00
2023-04-06T15:59:24.863Z,3.80
2023-04-06T16:01:51.683Z,4.33
2023-04-06T16:04:18.532Z,5.37
2023-04-06T16:06:45.512Z,5.00
2023-04-06T16:09:12.233Z,3.97
2023-04-06T16:11:39.106Z,3.67
2023-04-06T16:14:05.814Z,5.70
2023-04-06T16:16:32.673Z,3.80
2023-04-06T16:18:59.614Z,4.23
2023-04-06T16:21:28.037Z,3.17
2023-04-06T16:23:54.911Z,6.03
2023-04-06T16:26:21.972Z,3.50
2023-04-06T16:28:49.619Z,4.33
2023-04-06T16:31:23.609Z,5.20
2023-04-06T16:33:52.216Z,2.93
2023-04-06T16:36:23.055Z,4.63
2023-04-06T16:38:50.145Z,9.73
2023-04-06T16:41:17.039Z,5.00
2023-04-06T16:43:44.447Z,11.03
2023-04-06T16:46:11.365Z,6.33
2023-04-06T16:48:38.213Z,18.10
2023-04-06T16:51:05.922Z,3.97
2023-04-06T16:53:33.277Z,4.00
2023-04-06T16:55:59.944Z,3.33
2023-04-06T16:58:26.653Z,6.07
2023-04-06T17:00:53.539Z,3.87
2023-04-06T17:03:20.658Z,4.70
2023-04-06T17:05:47.449Z,29.23
2023-04-06T17:08:14.174Z,5.47
2023-04-06T17:10:51.642Z,6.93
2023-04-06T17:13:25.260Z,3.37
2023-04-06T17:15:52.000Z,4.07
2023-04-06T17:18:18.857Z,6.67
2023-04-06T17:20:46.857Z,6.07
2023-04-06T17:23:13.617Z,3.43
2023-04-06T17:25:40.416Z,3.13
2023-04-06T17:28:07.488Z,3.53
2023-04-06T17:30:34.644Z,3.80
2023-04-06T17:33:01.573Z,3.17
2023-04-06T17:35:28.399Z,5.43
2023-04-06T17:37:55.150Z,3.10
2023-04-06T17:40:21.846Z,6.30
2023-04-06T17:42:48.632Z,4.17
2023-04-06T17:45:18.431Z,5.43
2023-04-06T17:47:45.993Z,3.60
2023-04-06T17:50:12.831Z,2.93
2023-04-06T17:52:39.610Z,6.70
2023-04-06T17:55:06.545Z,5.73
2023-04-06T17:57:33.378Z,7.47
2023-04-06T18:00:00.132Z,7.90
2023-04-06T18:02:27.112Z,5.20
2023-04-06T18:04:55.452Z,5.70
2023-04-06T18:07:22.305Z,5.57
2023-04-06T18:09:49.227Z,5.97
2023-04-06T18:12:16.112Z,4.13
2023-04-06T18:14:43.168Z,6.20
2023-04-06T18:17:09.975Z,6.03
2023-04-06T18:19:36.780Z,4.50
2023-04-06T18:22:04.612Z,5.07
2023-04-06T18:24:42.094Z,3.57
2023-04-06T18:27:10.556Z,4.93
2023-04-06T18:29:37.557Z,4.67
2023-04-06T18:32:05.770Z,5.60
2023-04-06T18:34:32.789Z,4.70
2023-04-06T18:37:01.693Z,5.80
2023-04-06T18:39:28.740Z,9.57
2023-04-06T18:41:56.155Z,4.63
2023-04-06T18:44:23.191Z,6.13
2023-04-06T18:46:51.048Z,5.47
2023-04-06T18:49:20.116Z,10.40
2023-04-06T18:51:46.917Z,6.03
2023-04-06T18:54:13.572Z,8.43
2023-04-06T18:56:42.163Z,6.90
2023-04-06T18:59:13.604Z,5.90
2023-04-06T19:01:43.920Z,7.97
2023-04-06T19:04:11.988Z,6.63
2023-04-06T19:06:39.145Z,6.73
2023-04-06T19:09:06.116Z,9.23
2023-04-06T19:11:32.835Z,8.00
2023-04-06T19:14:00.638Z,6.87
2023-04-06T19:16:27.697Z,7.73
2023-04-06T19:18:54.966Z,6.33
2023-04-06T19:21:22.727Z,7.23
2023-04-06T19:23:51.717Z,6.87
2023-04-06T19:26:19.791Z,9.27
2023-04-06T19:28:47.266Z,10.63
2023-04-06T19:31:14.971Z,11.70
2023-04-06T19:33:42.285Z,7.87
2023-04-06T19:36:09.583Z,9.87
2023-04-06T19:38:36.944Z,10.83
2023-04-06T19:41:03.968Z,11.83
2023-04-06T19:43:30.846Z,11.57
2023-04-06T19:45:57.726Z,11.13
2023-04-06T19:48:24.704Z,9.00
2023-04-06T19:50:55.184Z,7.57
2023-04-06T19:53:23.404Z,10.90
2023-04-06T19:55:50.557Z,13.53
2023-04-06T19:58:17.451Z,13.77
2023-04-06T20:00:44.813Z,11.63
2023-04-06T20:03:11.829Z,9.13
2023-04-06T20:05:38.650Z,8.97
2023-04-06T20:08:05.496Z,13.90
2023-04-06T20:10:32.678Z,12.20
2023-04-06T20:13:01.617Z,11.23
2023-04-06T20:15:28.549Z,11.07
2023-04-06T20:17:55.687Z,11.03
2023-04-06T20:20:22.545Z,11.93
2023-04-06T20:22:50.348Z,10.70
2023-04-06T20:25:18.313Z,11.30
2023-04-06T20:27:46.140Z,10.17
2023-04-06T20:30:14.203Z,8.57
2023-04-06T20:32:41.221Z,12.70
2023-04-06T20:35:08.181Z,9.77
2023-04-06T20:37:36.006Z,7.47
2023-04-06T20:40:04.106Z,8.13
2023-04-06T20:42:34.007Z,9.67
2023-04-06T20:45:02.106Z,11.27
2023-04-06T20:47:28.952Z,9.93
2023-04-06T20:49:55.793Z,9.03
2023-04-06T20:52:22.981Z,11.07
2023-04-06T20:54:51.040Z,10.00
2023-04-06T20:57:17.873Z,10.33
2023-04-06T20:59:47.985Z,10.27
2023-04-06T21:02:15.017Z,12.20
2023-04-06T21:04:43.005Z,10.67
2023-04-06T21:07:10.583Z,13.20
2023-04-06T21:09:38.289Z,13.57
2023-04-06T21:12:05.791Z,10.30
2023-04-06T21:14:32.624Z,15.23
2023-04-06T21:16:59.946Z,10.77
2023-04-06T21:19:29.852Z,9.97
2023-04-06T21:21:56.689Z,12.43
2023-04-06T21:24:23.470Z,9.43
2023-04-06T21:26:50.187Z,14.33
2023-04-06T21:29:16.927Z,10.60
2023-04-06T21:31:43.700Z,10.80
2023-04-06T21:34:11.505Z,9.83
2023-04-06T21:36:38.628Z,10.03
2023-04-06T21:39:06.219Z,11.93
2023-04-06T21:41:33.493Z,12.37
2023-04-06T21:44:00.606Z,12.40
2023-04-06T21:46:27.487Z,10.10
2023-04-06T21:48:54.295Z,11.33
2023-04-06T21:51:22.267Z,11.90
2023-04-06T21:53:49.068Z,11.53
2023-04-06T21:56:20.013Z,11.40
2023-04-06T21:58:46.883Z,12.60
2023-04-06T22:01:13.648Z,12.73
2023-04-06T22:03:40.855Z,12.50
2023-04-06T22:06:08.004Z,12.33
2023-04-06T22:08:35.211Z,10.53
2023-04-06T22:11:07.404Z,14.07
2023-04-06T22:13:34.651Z,11.57
2023-04-06T22:16:01.408Z,11.13
2023-04-06T22:18:28.320Z,11.33
2023-04-06T22:20:55.363Z,11.70
2023-04-06T22:23:22.089Z,10.97
2023-04-06T22:25:49.149Z,10.20
2023-04-06T22:28:16.269Z,10.03
2023-04-06T22:30:42.962Z,10.80
2023-04-06T22:33:09.810Z,12.60
2023-04-06T22:35:36.872Z,12.13
2023-04-06T22:38:03.829Z,13.83
2023-04-06T22:40:30.672Z,16.50
2023-04-06T22:42:57.466Z,15.13
2023-04-06T22:45:24.189Z,17.17
2023-04-06T22:47:51.016Z,16.90
2023-04-06T22:50:18.125Z,13.87
2023-04-06T22:52:45.047Z,17.57
2023-04-06T22:55:11.847Z,15.63
2023-04-06T22:57:38.552Z,16.10
2023-04-06T23:00:06.144Z,15.27
2023-04-06T23:02:33.054Z,14.17
2023-04-06T23:04:59.850Z,16.67
2023-04-06T23:07:26.684Z,17.93
2023-04-06T23:09:54.134Z,16.43
2023-04-06T23:12:21.406Z,17.47
2023-04-06T23:14:48.157Z,17.73
2023-04-06T23:17:15.316Z,16.33
2023-04-06T23:19:42.062Z,23.13
2023-04-06T23:22:08.712Z,16.07
2023-04-06T23:24:35.598Z,20.10
2023-04-06T23:27:02.329Z,18.03
2023-04-06T23:29:29.158Z,15.63
2023-04-06T23:31:56.113Z,19.30
2023-04-06T23:34:22.833Z,19.63
2023-04-06T23:36:49.633Z,16.20
2023-04-06T23:39:16.492Z,22.10
2023-04-06T23:41:43.307Z,18.57
2023-04-06T23:44:10.048Z,16.10
2023-04-06T23:46:36.778Z,17.93
2023-04-06T23:49:03.542Z,19.83
2023-04-06T23:51:30.279Z,19.67
2023-04-06T23:53:58.129Z,21.13
2023-04-06T23:56:25.145Z,21.87
2023-04-06T23:58:52.128Z,20.13
